35OI weather

Fawcett Center For Tomorrow Heliport
Columbus, Ohio, United States

Public forecast

Using degrees Fahrenheit for public forecast. Weather courtesy of forecast.io.

Closest aviation weather report (METAR) to Fawcett Center For Tomorrow Heliport

Closest report is The Ohio State University Airport - Don Scott Field, 4.8 nm (9.0 km) NNW. Retrieved 2019/12/06 17:08 UTC (41 minutes ago):

KOSU 061708Z COR 30010KT BKN028 08/02 A3008 RMK AO2 T00830017

Closest aviation forecast (TAF) to Fawcett Center For Tomorrow Heliport

Closest forecast is John Glenn Columbus International Airport, 5.9 nm (10.9 km) E. Retrieved 2019/12/06 12:36 UTC (5 hours ago):

TAF KCMH 061135Z 0612/0712 21006KT P6SM OVC100 FM061500 26008KT P6SM OVC050 FM061800 32010KT P6SM OVC025 FM062100 35010KT P6SM SCT025 FM070000 01005KT P6SM SCT250